Погода Лесбосна неделю

Аттика, Греция

01 - 07 сентября
  • 01сентября
    Сегодня
    +19°
    +35°
    Ясно и безоблачно
    ВремяПогодаТемператураВлажностьДавлениеВетер, м/сВероятность осадков
    00:00Ясно и безоблачно+22°C68 %750 мм1.5 м/с2 %
    03:00Ясно и безоблачно+20°C84 %750 мм1.5 м/с2 %
    06:00Ясно и безоблачно+19°C90 %749 мм1.2 м/с2 %
    09:00Ясно и безоблачно+24°C63 %750 мм1.8 м/с2 %
    12:00Ясно и безоблачно+30°C38 %750 мм2.3 м/с2 %
    15:00Ясно и безоблачно+34°C29 %750 мм3.8 м/с2 %
    18:00Ясно и безоблачно+34°C25 %749 мм4.4 м/с2 %
    21:00Ясно и безоблачно+26°C37 %750 мм2.3 м/с2 %
  • 02сентября
    Среда
    +18°
    +35°
    Ясно и безоблачно
    ВремяПогодаТемператураВлажностьДавлениеВетер, м/сВероятность осадков
    00:00Ясно и безоблачно+23°C61 %750 мм1.7 м/с2 %
    03:00Ясно и безоблачно+21°C70 %750 мм1.4 м/с2 %
    06:00Ясно и безоблачно+20°C62 %750 мм1.6 м/с2 %
    09:00Ясно и безоблачно+25°C49 %751 мм2.2 м/с2 %
    12:00Ясно и безоблачно+31°C28 %751 мм3.0 м/с2 %
    15:00Ясно и безоблачно+34°C28 %750 мм3.2 м/с2 %
    18:00Ясно и безоблачно+33°C26 %749 мм4.3 м/с2 %
    21:00Ясно и безоблачно+26°C39 %750 мм2.3 м/с2 %
  • 03сентября
    Четверг
    +19°
    +34°
    Ясно и безоблачно
    ВремяПогодаТемператураВлажностьДавлениеВетер, м/сВероятность осадков
    00:00Ясно и безоблачно+22°C61 %750 мм1.8 м/с2 %
    03:00Ясно и безоблачно+20°C76 %749 мм1.4 м/с2 %
    06:00Ясно и безоблачно+19°C82 %749 мм1.2 м/с2 %
    09:00Ясно и безоблачно+24°C57 %749 мм1.9 м/с2 %
    12:00Ясно и безоблачно+31°C33 %749 мм3.0 м/с2 %
    15:00Ясно и безоблачно+34°C28 %748 мм5.1 м/с2 %
    18:00Ясно и безоблачно+31°C28 %747 мм6.9 м/с2 %
    21:00Ясно и безоблачно+25°C39 %748 мм4.3 м/с2 %
  • 04сентября
    Пятница
    +19°
    +32°
    Небольшая облачность
    ВремяПогодаТемператураВлажностьДавлениеВетер, м/сВероятность осадков
    00:00Ясно и безоблачно+22°C54 %749 мм2.9 м/с2 %
    03:00Ясно и безоблачно+20°C67 %748 мм2.0 м/с2 %
    06:00Ясно и безоблачно+20°C74 %749 мм3.5 м/с2 %
    09:00Ясно и безоблачно+24°C68 %749 мм4.4 м/с2 %
    12:00Практически безоблачно+29°C42 %750 мм6.0 м/с2 %
    15:00Небольшая облачность+31°C36 %749 мм7.0 м/с2 %
    18:00Ясно и безоблачно+31°C39 %749 мм7.1 м/с4 %
    21:00Ясно и безоблачно+26°C50 %751 мм6.7 м/с2 %
  • 05сентября
    Суббота
    +19°
    +33°
    Ясно и безоблачно
    ВремяПогодаТемператураВлажностьДавлениеВетер, м/сВероятность осадков
    00:00Ясно и безоблачно+23°C61 %751 мм3.3 м/с2 %
    03:00Ясно и безоблачно+21°C71 %751 мм3.4 м/с2 %
    06:00Ясно и безоблачно+20°C76 %752 мм3.5 м/с2 %
    09:00Ясно и безоблачно+24°C61 %752 мм3.4 м/с2 %
    12:00Ясно и безоблачно+30°C40 %753 мм4.8 м/с2 %
    15:00Ясно и безоблачно+33°C31 %752 мм5.1 м/с2 %
    18:00Ясно и безоблачно+31°C27 %751 мм6.7 м/с2 %
    21:00Ясно и безоблачно+25°C43 %752 мм3.1 м/с2 %
  • 06сентября
    Воскресенье
    +22°
    +36°
    Ясно и безоблачно
    ВремяПогодаТемператураВлажностьДавлениеВетер, м/сВероятность осадков
    03:00Ясно и безоблачно+20°C77 %752 мм1.2 м/с2 %
    09:00Ясно и безоблачно+25°C50 %753 мм2.2 м/с2 %
    15:00Ясно и безоблачно+34°C34 %753 мм2.8 м/с2 %
    21:00Ясно и безоблачно+27°C45 %753 мм2.0 м/с2 %
  • 07сентября
    Понедельник
    +20°
    +33°
    Ясно и безоблачно
    ВремяПогодаТемператураВлажностьДавлениеВетер, м/сВероятность осадков
    03:00Ясно и безоблачно+24°C60 %753 мм2.9 м/с2 %
    09:00Ясно и безоблачно+26°C53 %754 мм3.5 м/с2 %
    15:00Ясно и безоблачно+33°C32 %753 мм4.7 м/с2 %
    21:00Ясно и безоблачно+27°C38 %753 мм4.4 м/с2 %
Мы используем cookies
Соглашаюсь